Time;durP1;ratioP1;P1;durP2;ratioP2;P2;SDS_P1;SDS_P2;PMS_P1;PMS_P2;Temp;Humidity;BMP_temperature;BMP_pressure;BME280_temperature;BME280_humidity;BME280_pressure;Samples;Min_cycle;Max_cycle;Signal;HPM_P1;HPM_P2
2022/10/24 00:01:51;;;;;;;7.65;2.72;;;16.90;76.10;;;15.60;100.00;96066.50;4734162;29;20216;-64
2022/10/24 00:04:17;;;;;;;7.90;2.88;;;16.90;75.90;;;15.61;100.00;96078.72;4755716;29;20416;-63
2022/10/24 00:06:43;;;;;;;9.20;2.70;;;17.00;76.00;;;15.62;100.00;96075.06;4761032;29;20412;-64
2022/10/24 00:09:09;;;;;;;7.05;2.35;;;17.00;75.60;;;15.63;100.00;96075.88;4767554;29;20354;-64
2022/10/24 00:11:37;;;;;;;11.65;2.22;;;17.00;75.30;;;15.64;100.00;96077.50;4751949;29;20196;-64
2022/10/24 00:14:03;;;;;;;12.30;2.45;;;17.00;75.20;;;15.65;100.00;96068.53;4763054;29;20346;-65
2022/10/24 00:16:29;;;;;;;14.25;2.42;;;17.00;75.30;;;15.65;100.00;96068.53;4747343;29;20403;-65
2022/10/24 00:18:55;;;;;;;12.98;2.50;;;17.00;75.00;;;15.66;100.00;96067.50;4766484;29;20829;-65
2022/10/24 00:21:22;;;;;;;6.07;2.08;;;17.00;75.30;;;15.66;100.00;96075.44;4797280;29;20330;-65
2022/10/24 00:23:48;;;;;;;9.80;2.40;;;17.00;75.10;;;15.66;100.00;96072.78;4753340;29;20381;-65
2022/10/24 00:26:15;;;;;;;7.22;2.13;;;17.00;75.40;;;15.65;100.00;96069.31;4770079;29;20350;-65
2022/10/24 00:28:41;;;;;;;6.40;2.05;;;17.00;75.10;;;15.65;100.00;96074.63;4763787;29;20379;-65
2022/10/24 00:31:15;;;;;;;8.35;2.05;;;17.10;75.40;;;15.67;100.00;96092.97;4748873;29;20372;-65
2022/10/24 00:33:42;;;;;;;7.65;1.73;;;17.00;75.70;;;15.63;100.00;96107.72;4746145;29;20432;-64
2022/10/24 00:36:13;;;;;;;9.93;2.25;;;16.90;76.20;;;15.59;100.00;96107.31;4764776;29;20404;-65
2022/10/24 00:38:39;;;;;;;4.65;1.98;;;16.80;77.40;;;15.56;100.00;96107.72;4734098;29;20388;-64
2022/10/24 00:41:05;;;;;;;6.43;1.90;;;16.80;78.00;;;15.52;100.00;96111.84;4750839;29;20369;-65
2022/10/24 00:43:31;;;;;;;9.23;1.75;;;16.70;78.10;;;15.48;100.00;96126.56;4760193;29;20418;-64
2022/10/24 00:46:01;;;;;;;4.60;1.77;;;16.70;78.10;;;15.43;100.00;96134.38;4765495;29;20292;-64
2022/10/24 00:48:38;;;;;;;7.10;1.70;;;16.60;78.30;;;15.38;100.00;96120.94;4754086;29;20502;-64
2022/10/24 00:51:27;;;;;;;4.90;1.65;;;16.50;79.20;;;15.32;100.00;96099.59;4783988;29;21538;-64
2022/10/24 00:54:05;;;;;;;9.52;1.70;;;16.50;79.20;;;15.25;100.00;96100.69;4784837;29;20324;-64
2022/10/24 00:56:38;;;;;;;13.82;2.28;;;16.30;79.60;;;15.19;100.00;96094.44;4758814;29;20374;-64
2022/10/24 00:59:05;;;;;;;4.43;1.80;;;16.40;80.50;;;15.13;100.00;96095.28;4768414;29;20381;-64
2022/10/24 01:01:32;;;;;;;7.53;1.60;;;16.30;80.40;;;15.07;100.00;96090.84;4767969;29;20448;-64
2022/10/24 01:03:59;;;;;;;7.85;1.70;;;16.20;80.70;;;15.01;100.00;96060.75;4769874;29;20231;-65
2022/10/24 01:06:58;;;;;;;7.05;1.65;;;16.10;81.10;;;14.97;100.00;96053.47;4796978;29;20075;-64
2022/10/24 01:09:59;;;;;;;6.72;2.13;;;16.10;81.80;;;14.89;100.00;96053.72;4795226;29;20394;-64
2022/10/24 01:13:21;;;;;;;6.45;1.60;;;16.00;82.30;;;14.81;100.00;96060.09;4774962;29;20300;-64
2022/10/24 01:16:00;;;;;;;;;;;15.90;82.70;;;14.74;100.00;96055.91;4697858;29;20846;-65
2022/10/24 01:18:31;;;;;;;6.18;1.55;;;15.80;83.10;;;14.66;100.00;96065.72;4796886;29;20382;-63
2022/10/24 01:21:08;;;;;;;;;;;15.70;83.40;;;14.60;100.00;96045.41;4762704;29;20473;-64
2022/10/24 01:23:55;;;;;;;7.45;2.10;;;15.70;83.70;;;14.57;100.00;96040.53;4783012;29;20324;-64
2022/10/24 01:26:40;;;;;;;6.15;1.88;;;15.70;84.20;;;14.54;100.00;96025.09;4778989;29;20354;-64
2022/10/24 01:30:03;;;;;;;7.45;1.90;;;15.70;83.90;;;14.53;100.00;96034.06;4772914;29;20375;-66
2022/10/24 01:32:57;;;;;;;8.48;2.10;;;15.70;83.80;;;14.51;100.00;96030.81;4782834;29;20297;-66
2022/10/24 01:36:05;;;;;;;9.75;2.13;;;15.70;84.20;;;14.49;100.00;96013.53;4781428;29;20445;-65
2022/10/24 01:38:41;;;;;;;16.27;2.22;;;15.80;84.30;;;14.46;100.00;96006.81;4757194;29;20551;-64
2022/10/24 01:41:13;;;;;;;6.93;1.75;;;15.70;84.30;;;14.47;100.00;95968.72;4779830;29;20337;-66
2022/10/24 01:43:50;;;;;;;5.03;1.80;;;15.70;84.00;;;14.46;100.00;95948.59;4763818;29;20466;-64
2022/10/24 01:46:20;;;;;;;7.53;1.85;;;15.70;84.00;;;14.45;100.00;95989.31;4757273;29;20280;-64
2022/10/24 01:48:59;;;;;;;7.38;2.03;;;15.70;84.30;;;14.44;100.00;95977.09;4761707;29;20160;-64
2022/10/24 01:51:26;;;;;;;6.75;1.88;;;15.60;84.60;;;14.43;100.00;95978.13;4772327;29;20498;-64
2022/10/24 01:53:52;;;;;;;9.73;2.13;;;15.60;84.60;;;14.42;100.00;95989.72;4759930;29;20364;-64
2022/10/24 01:56:18;;;;;;;9.98;1.90;;;15.60;84.70;;;14.39;100.00;95984.84;4764694;29;20319;-64
2022/10/24 01:58:45;;;;;;;5.90;1.98;;;15.50;84.80;;;14.37;100.00;95971.03;4793976;29;20388;-64
2022/10/24 02:01:17;;;;;;;8.30;2.00;;;15.60;84.90;;;14.37;100.00;95965.75;4793281;29;20287;-64
2022/10/24 02:03:49;;;;;;;6.50;1.98;;;15.50;85.00;;;14.37;100.00;95965.75;4784228;29;20362;-65
2022/10/24 02:06:22;;;;;;;10.48;2.85;;;15.60;84.70;;;14.37;100.00;95968.38;4757823;29;20304;-64
2022/10/24 02:08:54;;;;;;;7.18;1.65;;;15.50;84.70;;;14.33;100.00;95954.78;4745494;29;20317;-64
2022/10/24 02:11:20;;;;;;;8.52;1.73;;;15.50;84.80;;;14.32;100.00;95957.66;4752794;29;20355;-64
2022/10/24 02:13:56;;;;;;;7.30;2.47;;;15.50;85.20;;;14.33;100.00;95932.81;4755091;29;20707;-65
2022/10/24 02:16:23;;;;;;;9.70;2.47;;;15.50;84.80;;;14.32;100.00;95915.31;4768092;29;20369;-64
2022/10/24 02:18:51;;;;;;;7.72;2.38;;;15.50;84.80;;;14.34;100.00;95923.84;4749500;29;20820;-64
2022/10/24 02:21:41;;;;;;;5.63;1.77;;;15.50;84.50;;;14.35;100.00;95920.97;4751714;29;20374;-64
2022/10/24 02:24:20;;;;;;;5.33;1.57;;;15.60;84.50;;;14.34;100.00;95906.13;4787947;29;20358;-64
2022/10/24 02:26:49;;;;;;;8.23;1.80;;;15.50;84.30;;;14.34;100.00;95908.78;4793792;29;20802;-64
2022/10/24 02:29:32;;;;;;;6.72;2.13;;;15.60;84.40;;;14.36;100.00;95900.63;4764087;29;20405;-65
2022/10/24 02:31:58;;;;;;;10.88;1.73;;;15.60;83.90;;;14.34;100.00;95895.53;4757078;29;20415;-66
2022/10/24 02:34:27;;;;;;;8.25;2.33;;;15.60;83.70;;;14.36;100.00;95890.03;4734406;29;20393;-64
2022/10/24 02:36:54;;;;;;;6.80;1.80;;;15.60;83.70;;;14.36;100.00;95874.97;4748128;29;20467;-64
2022/10/24 02:39:20;;;;;;;6.28;1.70;;;15.60;83.70;;;14.39;100.00;95892.25;4735709;29;20875;-65
2022/10/24 02:41:46;;;;;;;6.78;1.70;;;15.70;83.80;;;14.40;100.00;95896.50;4732919;29;20500;-64
2022/10/24 02:44:13;;;;;;;5.43;1.42;;;15.60;83.60;;;14.39;100.00;95879.00;4741427;29;20391;-64
2022/10/24 02:46:39;;;;;;;6.70;1.45;;;15.70;83.60;;;14.38;100.00;95901.22;4738378;29;20378;-67
2022/10/24 02:49:05;;;;;;;8.00;1.67;;;15.60;83.60;;;14.36;100.00;95895.31;4753101;29;20389;-67
2022/10/24 02:51:35;;;;;;;4.72;1.70;;;15.60;83.60;;;14.35;100.00;95899.00;4747809;29;20373;-70
2022/10/24 02:54:01;;;;;;;5.53;1.25;;;15.60;83.60;;;14.34;100.00;95897.38;4768695;29;20353;-68
2022/10/24 02:56:28;;;;;;;5.60;1.80;;;15.60;83.90;;;14.33;100.00;95901.06;4760940;29;20542;-64
2022/10/24 02:58:54;;;;;;;7.22;1.55;;;15.50;84.00;;;14.32;100.00;95896.78;4745871;29;20369;-65
2022/10/24 03:01:20;;;;;;;6.65;1.60;;;15.50;83.90;;;14.30;100.00;95901.50;4764669;29;20461;-65
2022/10/24 03:03:46;;;;;;;8.82;1.83;;;15.50;83.70;;;14.29;100.00;95892.75;4766818;29;20709;-65
2022/10/24 03:06:12;;;;;;;10.65;1.55;;;15.50;83.70;;;14.31;100.00;95892.53;4762824;29;20415;-65
2022/10/24 03:08:38;;;;;;;4.65;1.48;;;15.50;83.70;;;14.30;100.00;95881.13;4780888;29;20352;-64
2022/10/24 03:11:04;;;;;;;6.25;1.45;;;15.50;83.80;;;14.32;100.00;95888.84;4764444;29;20340;-64
2022/10/24 03:13:31;;;;;;;4.50;1.48;;;15.50;83.70;;;14.31;100.00;95884.59;4761935;29;20432;-65
2022/10/24 03:15:57;;;;;;;8.90;1.85;;;15.60;83.80;;;14.32;100.00;95889.66;4755476;29;20454;-64
2022/10/24 03:18:23;;;;;;;6.50;1.70;;;15.60;83.70;;;14.32;100.00;95896.78;4763763;29;20703;-65
2022/10/24 03:20:49;;;;;;;6.40;1.60;;;15.50;83.70;;;14.31;100.00;95892.53;4762434;29;20045;-63
2022/10/24 03:23:17;;;;;;;5.82;1.30;;;15.50;83.80;;;14.30;100.00;95912.06;4769596;29;20392;-64
2022/10/24 03:25:44;;;;;;;6.50;1.40;;;15.60;83.90;;;14.30;100.00;95912.06;4766555;29;20324;-65
2022/10/24 03:28:10;;;;;;;5.15;1.30;;;15.50;84.00;;;14.30;100.00;95912.06;4776857;29;20725;-64
2022/10/24 03:30:36;;;;;;;5.00;1.48;;;15.50;83.90;;;14.27;100.00;95912.50;4742289;29;20428;-64
2022/10/24 03:33:02;;;;;;;4.28;1.40;;;15.50;83.80;;;14.26;100.00;95908.25;4762268;29;20769;-65
2022/10/24 03:35:28;;;;;;;7.00;1.60;;;15.50;84.10;;;14.26;100.00;95905.59;4774020;29;20572;-64
2022/10/24 03:37:54;;;;;;;7.95;2.00;;;15.40;84.10;;;14.26;100.00;95921.47;4773245;29;20315;-65
2022/10/24 03:40:20;;;;;;;8.55;1.50;;;15.40;84.10;;;14.25;100.00;95930.41;4784386;29;20376;-63
2022/10/24 03:42:47;;;;;;;6.82;1.75;;;15.50;84.30;;;14.23;100.00;95927.16;4765789;29;20492;-66
2022/10/24 03:45:13;;;;;;;4.07;1.30;;;15.40;84.30;;;14.24;100.00;95937.53;4744608;29;20537;-64
2022/10/24 03:47:39;;;;;;;6.47;1.60;;;15.50;84.40;;;14.24;100.00;95923.50;4756771;29;20494;-66
2022/10/24 03:50:06;;;;;;;6.13;1.13;;;15.50;84.40;;;14.24;100.00;95928.78;4763097;29;20380;-65
2022/10/24 03:52:33;;;;;;;4.57;1.45;;;15.50;84.40;;;14.23;100.00;95927.97;4757129;29;20284;-70
2022/10/24 03:54:58;;;;;;;6.20;1.42;;;15.50;84.20;;;14.23;100.00;95930.63;4793141;29;20517;-64
2022/10/24 03:57:25;;;;;;;6.38;1.70;;;15.50;84.30;;;14.23;100.00;95927.97;4850459;29;20391;-64
2022/10/24 03:59:50;;;;;;;6.68;1.92;;;15.50;84.30;;;14.24;100.00;95934.09;4860050;29;20025;-64
2022/10/24 04:02:16;;;;;;;3.95;1.35;;;15.50;84.40;;;14.24;100.00;95934.09;4869902;29;20065;-64
2022/10/24 04:04:42;;;;;;;5.07;1.30;;;15.50;84.30;;;14.24;100.00;95936.72;4868196;29;20159;-64
2022/10/24 04:07:08;;;;;;;8.00;1.30;;;15.50;84.50;;;14.24;100.00;95942.81;4870769;29;20127;-66
2022/10/24 04:09:33;;;;;;;4.85;1.30;;;15.50;84.50;;;14.23;100.00;95950.97;4875501;29;20044;-66
2022/10/24 04:11:59;;;;;;;4.03;1.65;;;15.50;84.60;;;14.23;100.00;95948.34;4857086;29;20047;-67
2022/10/24 04:14:25;;;;;;;4.43;1.48;;;15.50;84.70;;;14.23;100.00;95950.97;4871883;29;20449;-66
2022/10/24 04:16:51;;;;;;;4.90;1.42;;;15.60;84.80;;;14.24;100.00;95945.47;4882727;29;20044;-68
2022/10/24 04:19:17;;;;;;;6.60;2.10;;;15.50;84.50;;;14.24;100.00;95940.19;4866225;29;20041;-69
2022/10/24 04:21:44;;;;;;;7.32;1.48;;;15.50;84.50;;;14.26;100.00;95940.00;4872284;29;20489;-69
2022/10/24 04:24:10;;;;;;;6.55;1.73;;;15.60;84.40;;;14.27;100.00;95944.25;4871809;29;20145;-68
2022/10/24 04:26:36;;;;;;;6.68;2.10;;;15.60;84.20;;;14.27;100.00;95954.84;4860693;29;20059;-68
2022/10/24 04:29:02;;;;;;;6.88;1.80;;;15.60;84.50;;;14.26;100.00;95958.50;4855724;29;20041;-68
2022/10/24 04:31:28;;;;;;;4.60;1.52;;;15.50;84.60;;;14.26;100.00;95963.81;4887195;29;20047;-68
2022/10/24 04:33:53;;;;;;;7.00;1.75;;;15.50;84.80;;;14.26;100.00;95958.50;4856840;29;20112;-69
2022/10/24 04:36:20;;;;;;;8.27;1.77;;;15.50;85.00;;;14.25;100.00;95946.28;4842130;29;22158;-69
2022/10/24 04:38:46;;;;;;;7.65;1.67;;;15.60;84.80;;;14.28;100.00;95945.88;4851837;29;20052;-69
2022/10/24 04:41:11;;;;;;;5.80;1.55;;;15.60;84.40;;;14.28;100.00;95946.69;4857739;29;20543;-69
2022/10/24 04:43:37;;;;;;;5.70;1.92;;;15.60;84.40;;;14.30;100.00;95955.22;4859493;29;20043;-69
2022/10/24 04:46:03;;;;;;;4.97;1.55;;;15.70;84.40;;;14.32;100.00;95947.88;4875261;29;20400;-68
2022/10/24 04:48:29;;;;;;;3.85;1.70;;;15.70;84.60;;;14.33;100.00;95959.25;4873923;29;20048;-69
2022/10/24 04:50:55;;;;;;;5.55;1.80;;;15.70;84.60;;;14.35;100.00;95970.44;4857930;29;20124;-68
2022/10/24 04:53:20;;;;;;;5.85;1.80;;;15.70;84.70;;;14.35;100.00;95965.16;4847792;29;20051;-68
2022/10/24 04:55:46;;;;;;;5.22;1.65;;;15.70;84.60;;;14.35;100.00;95958.03;4859337;29;20449;-69
2022/10/24 04:58:12;;;;;;;6.63;1.88;;;15.70;84.30;;;14.34;100.00;95966.19;4859099;29;20530;-68
2022/10/24 05:00:38;;;;;;;5.53;1.88;;;15.70;84.30;;;14.32;100.00;95958.47;4858976;29;20032;-68
2022/10/24 05:03:04;;;;;;;7.45;2.40;;;15.60;84.30;;;14.32;100.00;95958.47;4855479;29;20548;-70
2022/10/24 05:05:29;;;;;;;6.68;2.30;;;15.60;84.10;;;14.32;100.00;95962.94;4873568;29;20100;-68
2022/10/24 05:07:55;;;;;;;5.32;2.05;;;15.60;84.20;;;14.32;100.00;95969.03;4858409;29;20037;-68
2022/10/24 05:10:21;;;;;;;5.63;2.30;;;15.60;84.10;;;14.32;100.00;95958.47;4859244;29;20095;-69
2022/10/24 05:12:47;;;;;;;5.70;2.00;;;15.60;84.20;;;14.31;100.00;95951.53;4869808;29;20128;-69
2022/10/24 05:15:17;;;;;;;6.93;2.03;;;15.60;84.40;;;14.31;100.00;95956.03;4871383;29;20172;-65
2022/10/24 05:17:43;;;;;;;7.15;1.90;;;15.60;84.50;;;14.29;100.00;95956.25;4855700;29;20041;-65
2022/10/24 05:20:09;;;;;;;6.95;1.67;;;15.60;84.50;;;14.29;100.00;95947.50;4840637;29;20041;-65
2022/10/24 05:22:35;;;;;;;7.47;2.15;;;15.60;84.70;;;14.30;100.00;95959.69;4876393;29;20044;-64
2022/10/24 05:25:01;;;;;;;7.07;1.77;;;15.60;84.80;;;14.31;100.00;95951.53;4884687;29;20094;-65
2022/10/24 05:27:26;;;;;;;5.03;1.83;;;15.60;84.60;;;14.30;100.00;95944.63;4881747;29;20675;-64
2022/10/24 05:29:55;;;;;;;8.13;2.00;;;15.60;84.60;;;14.32;100.00;95955.00;4857743;29;20032;-65
2022/10/24 05:32:21;;;;;;;5.20;1.90;;;15.60;84.50;;;14.32;100.00;95957.66;4858430;29;20071;-65
2022/10/24 05:34:47;;;;;;;5.95;1.77;;;15.70;84.50;;;14.31;100.00;95974.53;4856904;29;20037;-65
2022/10/24 05:37:13;;;;;;;7.55;2.08;;;15.60;84.70;;;14.29;100.00;95982.69;4850499;29;20039;-66
2022/10/24 05:39:39;;;;;;;4.93;1.55;;;15.60;84.60;;;14.28;100.00;95990.84;4857593;29;20540;-65
2022/10/24 05:42:05;;;;;;;6.32;1.98;;;15.60;84.80;;;14.28;100.00;95996.97;4858331;29;20044;-65
2022/10/24 05:44:30;;;;;;;8.23;1.98;;;15.60;84.80;;;14.29;100.00;96003.06;4870190;29;20493;-65
2022/10/24 05:46:56;;;;;;;7.65;2.10;;;15.60;84.80;;;14.29;100.00;96000.41;4864945;29;20127;-64
2022/10/24 05:49:22;;;;;;;6.60;2.30;;;15.70;84.80;;;14.29;100.00;95995.94;4872576;29;20120;-65
2022/10/24 05:51:48;;;;;;;5.45;2.22;;;15.60;84.70;;;14.28;100.00;95986.38;4857793;29;20485;-65
2022/10/24 05:54:16;;;;;;;5.43;2.28;;;15.60;84.70;;;14.28;100.00;95999.59;4882197;29;20049;-65
2022/10/24 05:56:42;;;;;;;6.50;2.15;;;15.60;84.70;;;14.27;100.00;96005.09;4872985;29;20033;-65
2022/10/24 05:59:08;;;;;;;6.15;1.90;;;15.60;84.70;;;14.28;100.00;96014.66;4866142;29;20096;-65
2022/10/24 06:01:34;;;;;;;6.70;2.50;;;15.60;85.00;;;14.27;100.00;96020.97;4847212;29;20033;-65
2022/10/24 06:03:59;;;;;;;8.68;2.60;;;15.60;85.20;;;14.28;100.00;96031.34;4854939;29;20048;-65
2022/10/24 06:06:25;;;;;;;9.80;2.60;;;15.60;85.20;;;14.30;100.00;96028.50;4870162;29;20041;-65
2022/10/24 06:08:51;;;;;;;7.35;2.40;;;15.70;84.90;;;14.30;100.00;96028.50;4874280;29;20140;-65
2022/10/24 06:11:17;;;;;;;5.97;2.28;;;15.60;84.70;;;14.31;100.00;96038.03;4857133;29;20111;-66
2022/10/24 06:13:43;;;;;;;5.50;2.30;;;15.60;84.90;;;14.30;100.00;96024.00;4872888;29;20040;-65
2022/10/24 06:16:10;;;;;;;8.48;2.53;;;15.60;84.90;;;14.33;100.00;96026.22;4857602;29;20150;-65
2022/10/24 06:18:36;;;;;;;7.72;2.50;;;15.70;84.90;;;14.33;100.00;96017.47;4868382;29;20127;-66
2022/10/24 06:21:04;;;;;;;9.52;2.55;;;15.70;85.00;;;14.34;100.00;96024.38;4852999;29;20061;-65
2022/10/24 06:23:29;;;;;;;8.70;2.25;;;15.60;84.90;;;14.36;100.00;96022.34;4869590;29;20029;-65
2022/10/24 06:25:55;;;;;;;8.85;3.13;;;15.60;84.90;;;14.37;100.00;96021.31;4870116;29;20061;-66
2022/10/24 06:28:21;;;;;;;8.95;2.58;;;15.60;84.80;;;14.40;100.00;96019.03;4869520;29;20048;-65
2022/10/24 06:30:48;;;;;;;8.45;2.58;;;15.70;84.70;;;14.42;100.00;96018.81;4848973;29;20553;-65
2022/10/24 06:33:14;;;;;;;6.80;2.55;;;15.80;84.90;;;14.45;100.00;96026.34;4841477;29;20037;-66
2022/10/24 06:35:40;;;;;;;6.78;2.72;;;15.80;84.50;;;14.49;100.00;96032.06;4854442;29;20055;-66
2022/10/24 06:38:05;;;;;;;8.98;2.67;;;15.80;84.50;;;14.50;100.00;96028.38;4853583;29;20081;-65
2022/10/24 06:40:31;;;;;;;8.20;2.42;;;15.80;84.40;;;14.53;100.00;96025.31;4867841;29;20040;-66
2022/10/24 06:42:57;;;;;;;6.70;2.50;;;15.90;84.40;;;14.54;100.00;96016.34;4883059;29;20430;-65
2022/10/24 06:45:23;;;;;;;6.43;2.53;;;15.90;84.20;;;14.56;100.00;96007.16;4856968;29;20401;-66
2022/10/24 06:47:50;;;;;;;7.60;2.65;;;16.00;84.30;;;14.60;100.00;96013.63;4887222;29;20079;-65
2022/10/24 06:50:16;;;;;;;11.15;2.97;;;16.10;84.00;;;14.65;100.00;96005.03;4870007;29;20492;-66
2022/10/24 06:52:42;;;;;;;6.28;2.55;;;16.10;83.70;;;14.69;100.00;95996.44;4849153;29;20088;-66
2022/10/24 06:55:08;;;;;;;11.50;3.15;;;16.20;83.50;;;14.75;100.00;96001.91;4880226;29;20096;-66
2022/10/24 06:57:34;;;;;;;11.48;2.63;;;16.20;83.50;;;14.77;100.00;95999.84;4856380;29;20043;-66
2022/10/24 07:00:00;;;;;;;14.40;2.90;;;16.30;83.20;;;14.80;100.00;95996.78;4871360;29;20068;-65
2022/10/24 07:02:26;;;;;;;8.55;2.60;;;16.30;82.90;;;14.80;100.00;95980.88;4838321;29;20136;-65
2022/10/24 07:04:51;;;;;;;12.13;2.47;;;16.30;82.90;;;14.82;100.00;95981.47;4853060;29;20524;-65
2022/10/24 07:07:20;;;;;;;7.82;2.40;;;16.30;83.00;;;14.86;100.00;96001.19;4869468;29;20100;-66
2022/10/24 07:09:55;;;;;;;6.35;2.42;;;16.40;82.90;;;14.88;100.00;95993.84;4840217;29;20036;-65
2022/10/24 07:12:22;;;;;;;8.15;2.53;;;16.40;82.70;;;14.90;100.00;95986.47;4852819;29;20047;-65
2022/10/24 07:14:48;;;;;;;9.38;2.50;;;16.40;82.60;;;14.90;100.00;96002.38;4862559;29;20537;-66
2022/10/24 07:17:15;;;;;;;13.18;2.65;;;16.50;82.40;;;14.92;100.00;96005.59;4869739;29;20132;-65
2022/10/24 07:19:40;;;;;;;6.13;1.98;;;16.40;82.20;;;14.94;100.00;96009.69;4863374;29;20044;-66
2022/10/24 07:22:06;;;;;;;6.80;2.03;;;16.40;82.20;;;14.97;100.00;96016.38;4872659;29;20383;-66
2022/10/24 07:24:32;;;;;;;9.57;2.50;;;16.50;82.10;;;15.00;100.00;96014.09;4838035;29;20056;-64
2022/10/24 07:26:58;;;;;;;5.55;2.15;;;16.60;82.00;;;15.04;100.00;96016.31;4837230;29;20410;-64
2022/10/24 07:29:24;;;;;;;6.53;2.63;;;16.60;81.70;;;15.06;100.00;96017.72;4869159;29;20539;-65
2022/10/24 07:31:49;;;;;;;7.43;2.55;;;16.60;81.60;;;15.09;100.00;96017.25;4853286;29;20033;-66
2022/10/24 07:34:15;;;;;;;10.75;2.03;;;16.60;81.80;;;15.11;100.00;96009.91;4884506;29;20049;-66
2022/10/24 07:36:41;;;;;;;4.43;2.10;;;16.70;81.90;;;15.12;100.00;96016.00;4868516;29;20510;-63
2022/10/24 07:39:07;;;;;;;7.57;2.13;;;16.60;81.60;;;15.15;100.00;96021.69;4890608;29;20064;-65
2022/10/24 07:41:32;;;;;;;4.53;2.22;;;16.70;81.20;;;15.16;100.00;96023.34;4876684;29;20124;-65
2022/10/24 07:44:00;;;;;;;5.22;2.30;;;16.70;81.10;;;15.17;100.00;96027.59;4853622;29;20051;-65
2022/10/24 07:46:26;;;;;;;5.30;2.38;;;16.60;81.20;;;15.16;100.00;96033.94;4853884;29;20080;-64
2022/10/24 07:48:52;;;;;;;8.18;2.15;;;16.60;81.20;;;15.16;100.00;96028.63;4864618;29;20518;-65
2022/10/24 07:51:18;;;;;;;7.32;2.10;;;16.60;81.10;;;15.14;100.00;96020.06;4856639;29;20040;-65
2022/10/24 07:53:44;;;;;;;6.63;1.45;;;16.50;81.30;;;15.11;100.00;96019.69;4856041;29;20374;-65
2022/10/24 07:56:13;;;;;;;6.40;1.88;;;16.50;81.50;;;15.10;100.00;96040.06;4848787;29;20047;-64
2022/10/24 07:58:39;;;;;;;4.55;1.90;;;16.50;81.40;;;15.07;100.00;96055.59;4863411;29;20136;-64
2022/10/24 08:01:07;;;;;;;8.13;2.25;;;16.40;81.80;;;15.05;100.00;96052.38;4844540;29;20056;-64
2022/10/24 08:03:32;;;;;;;5.78;1.80;;;16.40;81.90;;;15.00;100.00;96045.88;4846062;29;20045;-65
2022/10/24 08:05:58;;;;;;;7.95;1.85;;;16.30;82.10;;;14.97;100.00;96040.22;4863531;29;20152;-64
2022/10/24 08:08:24;;;;;;;4.55;1.70;;;16.20;82.40;;;14.97;100.00;96050.81;4866368;29;20032;-64
2022/10/24 08:10:50;;;;;;;5.53;2.17;;;16.30;82.40;;;14.95;100.00;96052.88;4883444;29;20037;-64
2022/10/24 08:13:16;;;;;;;4.93;2.00;;;16.30;82.50;;;14.93;100.00;96049.59;4868862;29;20078;-65
2022/10/24 08:15:42;;;;;;;4.68;2.00;;;16.30;82.60;;;14.92;100.00;96054.09;4885847;29;20052;-64
2022/10/24 08:18:08;;;;;;;8.65;2.03;;;16.30;82.60;;;14.94;100.00;96045.97;4873991;29;20323;-64
2022/10/24 08:20:33;;;;;;;10.02;2.25;;;16.40;82.50;;;14.95;100.00;96037.78;4875165;29;20078;-64
2022/10/24 08:22:59;;;;;;;7.28;1.80;;;16.50;82.90;;;14.98;100.00;96036.53;4874458;29;20044;-64
2022/10/24 08:25:25;;;;;;;6.38;2.13;;;16.50;82.90;;;15.01;100.00;96036.09;4875793;29;20399;-65
2022/10/24 08:27:51;;;;;;;10.05;2.20;;;16.50;82.90;;;14.99;100.00;96038.16;4855245;29;20033;-66
2022/10/24 08:30:16;;;;;;;6.68;1.75;;;16.50;82.40;;;15.02;100.00;96032.41;4871577;29;20100;-63
2022/10/24 08:32:42;;;;;;;6.57;2.58;;;16.60;82.60;;;15.07;100.00;96032.56;4855689;29;20081;-64
2022/10/24 08:35:08;;;;;;;9.23;2.25;;;16.60;82.20;;;15.09;100.00;96032.34;4857167;29;20044;-63
2022/10/24 08:37:36;;;;;;;10.52;2.22;;;16.70;82.00;;;15.10;100.00;96024.19;4857069;29;20544;-64
2022/10/24 08:40:08;;;;;;;6.85;2.35;;;16.70;81.80;;;15.16;100.00;96022.50;4850993;29;20055;-65
2022/10/24 08:42:34;;;;;;;9.13;4.10;;;16.70;81.80;;;15.19;100.00;96020.25;4841683;29;20542;-66
2022/10/24 08:44:59;;;;;;;7.82;2.78;;;16.80;81.60;;;15.23;100.00;96024.06;4855728;29;20037;-66
2022/10/24 08:47:56;;;;;;;7.10;2.47;;;16.90;81.40;;;15.29;100.00;96019.72;4871034;29;20092;-66
2022/10/24 08:50:30;;;;;;;6.03;2.47;;;17.00;81.40;;;15.35;100.00;96036.56;4862017;29;20072;-66
2022/10/24 08:53:08;;;;;;;10.20;2.85;;;17.00;80.80;;;15.41;100.00;96035.72;4858822;29;20036;-66
2022/10/24 08:55:48;;;;;;;6.85;2.22;;;17.10;81.10;;;15.42;100.00;96037.34;4881801;29;20037;-66
2022/10/24 08:58:35;;;;;;;6.93;1.83;;;17.00;80.90;;;15.40;100.00;96039.41;4857694;29;20041;-64
2022/10/24 09:01:06;;;;;;;10.50;1.80;;;16.80;81.20;;;15.39;100.00;96033.28;4868111;29;20036;-65
2022/10/24 09:03:42;;;;;;;8.60;2.60;;;16.80;81.40;;;15.39;100.00;96035.94;4859781;29;20033;-66
2022/10/24 09:06:17;;;;;;;4.82;2.00;;;16.80;81.70;;;15.39;100.00;96033.28;4889975;29;20072;-65
2022/10/24 09:08:52;;;;;;;3.13;1.83;;;16.80;81.80;;;15.40;100.00;96050.00;4858477;29;20033;-65
2022/10/24 09:11:48;;;;;;;5.38;2.33;;;16.80;81.90;;;15.39;100.00;96027.97;4896397;29;20524;-66
2022/10/24 09:14:16;;;;;;;6.55;2.08;;;16.80;81.80;;;15.41;100.00;96035.72;4871975;29;20516;-65
2022/10/24 09:16:43;;;;;;;6.90;2.05;;;16.90;82.00;;;15.42;100.00;96038.13;4870624;29;20037;-65
2022/10/24 09:19:21;;;;;;;7.60;2.45;;;17.00;81.90;;;15.46;100.00;96043.81;4851582;29;20064;-65
2022/10/24 09:21:47;;;;;;;7.40;2.55;;;17.00;81.70;;;15.46;100.00;96049.09;4852590;29;20031;-65
2022/10/24 09:24:29;;;;;;;9.20;2.50;;;17.00;81.60;;;15.49;100.00;96043.38;4858668;29;20079;-65
2022/10/24 09:26:55;;;;;;;3.78;1.65;;;17.00;81.60;;;15.47;100.00;96042.78;4854071;29;20194;-65
2022/10/24 09:29:28;;;;;;;9.27;2.45;;;16.90;81.80;;;15.48;100.00;96037.25;4888297;29;20041;-65
2022/10/24 09:31:54;;;;;;;9.02;2.83;;;17.00;81.90;;;15.50;100.00;96044.97;4844551;29;20044;-66
2022/10/24 09:34:20;;;;;;;5.55;2.60;;;17.10;81.90;;;15.51;100.00;96046.59;4858131;29;20060;-64
2022/10/24 09:36:46;;;;;;;7.60;2.40;;;17.00;82.00;;;15.53;100.00;96049.84;4856728;29;20092;-65
2022/10/24 09:39:30;;;;;;;5.85;2.10;;;17.10;81.80;;;15.52;100.00;96056.16;4870131;29;20108;-66
2022/10/24 09:41:57;;;;;;;7.03;2.25;;;17.00;82.00;;;15.49;100.00;96048.66;4840186;29;20080;-65
2022/10/24 09:44:32;;;;;;;6.18;2.70;;;17.00;82.20;;;15.49;100.00;96048.66;4840136;29;20528;-65
2022/10/24 09:46:59;;;;;;;8.90;2.35;;;16.90;81.90;;;15.48;100.00;96052.34;4853547;29;20040;-66
2022/10/24 09:49:35;;;;;;;6.40;2.72;;;16.90;82.10;;;15.46;100.00;96047.28;4869812;29;20113;-65
2022/10/24 09:52:05;;;;;;;9.20;4.45;;;16.80;82.00;;;15.47;100.00;96053.38;4871547;29;20048;-64
2022/10/24 09:54:32;;;;;;;5.95;2.17;;;17.00;82.00;;;15.49;100.00;96059.28;4883767;29;20088;-65
2022/10/24 09:57:01;;;;;;;7.65;2.17;;;17.00;81.50;;;15.47;100.00;96061.34;4852842;29;20032;-65
2022/10/24 09:59:35;;;;;;;6.82;1.85;;;16.90;81.50;;;15.45;100.00;96058.09;4889602;29;20074;-64
2022/10/24 10:02:13;;;;;;;6.07;1.90;;;16.80;81.90;;;15.45;100.00;96068.69;4889051;29;20223;-65
2022/10/24 10:04:40;;;;;;;9.88;1.83;;;16.80;82.20;;;15.41;100.00;96068.31;4888094;29;20051;-65
2022/10/24 10:07:17;;;;;;;6.70;2.42;;;16.80;82.20;;;15.41;100.00;96070.97;4849598;29;20033;-65
2022/10/24 10:09:55;;;;;;;5.07;2.25;;;16.80;82.20;;;15.38;100.00;96073.22;4869294;29;20095;-65
2022/10/24 10:12:39;;;;;;;7.78;2.53;;;16.70;82.20;;;15.36;100.00;96080.59;4855481;29;20037;-65
2022/10/24 10:15:30;;;;;;;6.25;2.20;;;16.70;82.40;;;15.34;100.00;96078.16;4859306;29;20055;-65
2022/10/24 10:18:16;;;;;;;8.73;2.40;;;16.60;82.40;;;15.27;100.00;96088.84;4876697;29;20284;-65
2022/10/24 10:20:42;;;;;;;8.00;2.30;;;16.60;82.70;;;15.23;100.00;96092.16;4871730;29;20045;-65
2022/10/24 10:23:26;;;;;;;11.25;2.40;;;16.60;83.10;;;15.21;100.00;96087.06;4869623;29;20051;-66